createdAt,value
2018-10-19T00:01:58.420Z,99642.89
2018-10-19T00:04:26.899Z,99645.32
2018-10-19T00:06:55.349Z,99644.87
2018-10-19T00:09:23.851Z,99641.94
2018-10-19T00:11:52.368Z,99649.84
2018-10-19T00:14:20.842Z,99645.63
2018-10-19T00:16:49.305Z,99642.85
2018-10-19T00:19:17.814Z,99647.12
2018-10-19T00:21:46.277Z,99647.87
2018-10-19T00:24:14.783Z,99646.08
2018-10-19T00:26:43.257Z,99645.02
2018-10-19T00:29:11.852Z,99652.06
2018-10-19T00:31:40.395Z,99646.98
2018-10-19T00:34:09.399Z,99652.33
2018-10-19T00:36:37.907Z,99647.14
2018-10-19T00:39:08.782Z,99651.03
2018-10-19T00:41:37.209Z,99659.73
2018-10-19T00:44:05.904Z,99659.94
2018-10-19T00:46:34.360Z,99656.11
2018-10-19T00:49:03.135Z,99653.57
2018-10-19T00:51:31.635Z,99649.94
2018-10-19T00:54:00.174Z,99648.63
2018-10-19T00:56:28.623Z,99647.33
2018-10-19T00:58:57.108Z,99646.73
2018-10-19T01:01:25.526Z,99649.87
2018-10-19T01:03:54.067Z,99646.39
2018-10-19T01:06:22.511Z,99639.02
2018-10-19T01:08:51.004Z,99639.01
2018-10-19T01:11:19.447Z,99636.27
2018-10-19T01:13:47.910Z,99639.03
2018-10-19T01:16:17.137Z,99641.58
2018-10-19T01:18:45.632Z,99639.88
2018-10-19T01:21:14.143Z,99644.83
2018-10-19T01:23:42.543Z,99646.87
2018-10-19T01:26:11.129Z,99645.80
2018-10-19T01:28:39.600Z,99644.09
2018-10-19T01:31:08.126Z,99608.53
2018-10-19T01:33:36.580Z,99646.04
2018-10-19T01:36:06.494Z,99643.27
2018-10-19T01:38:35.570Z,99640.95
2018-10-19T01:41:04.132Z,99639.02
2018-10-19T01:43:32.629Z,99643.13
2018-10-19T01:46:01.087Z,99640.23
2018-10-19T01:48:29.775Z,99639.39
2018-10-19T01:50:58.999Z,98889.42
2018-10-19T01:53:27.739Z,99640.09
2018-10-19T01:55:56.200Z,99640.69
2018-10-19T01:58:24.649Z,99639.84
2018-10-19T02:00:53.124Z,99640.57
2018-10-19T02:03:21.606Z,99634.77
2018-10-19T02:05:50.066Z,99636.59
2018-10-19T02:08:18.552Z,99637.91
2018-10-19T02:10:47.005Z,99631.02
2018-10-19T02:13:15.417Z,99634.63
2018-10-19T02:15:43.887Z,99633.80
2018-10-19T02:18:12.374Z,99635.95
2018-10-19T02:20:40.923Z,99633.81
2018-10-19T02:23:09.429Z,99626.08
2018-10-19T02:25:37.836Z,99628.73
2018-10-19T02:28:06.335Z,99636.53
2018-10-19T02:30:34.800Z,99635.21
2018-10-19T02:33:03.241Z,99637.61
2018-10-19T02:35:31.669Z,99634.82
2018-10-19T02:38:00.641Z,99636.86
2018-10-19T02:40:29.093Z,99641.94
2018-10-19T02:42:57.594Z,99635.54
2018-10-19T02:45:26.036Z,99633.96
2018-10-19T02:47:54.485Z,99632.49
2018-10-19T02:50:22.925Z,99635.64
2018-10-19T02:52:51.442Z,99635.75
2018-10-19T02:55:19.894Z,99636.78
2018-10-19T02:57:48.311Z,99634.23
2018-10-19T03:00:16.763Z,99629.77
2018-10-19T03:02:45.257Z,99630.01
2018-10-19T03:05:13.687Z,99635.91
2018-10-19T03:07:42.105Z,99632.50
2018-10-19T03:10:10.537Z,99633.98
2018-10-19T03:12:39.625Z,99624.62
2018-10-19T03:15:08.695Z,99632.31
2018-10-19T03:17:37.191Z,99633.80
2018-10-19T03:20:07.162Z,99630.36
2018-10-19T03:22:35.796Z,99634.99
2018-10-19T03:25:04.310Z,99638.62
2018-10-19T03:27:32.933Z,99629.95
2018-10-19T03:30:01.382Z,99629.08
2018-10-19T03:32:29.874Z,99628.33
2018-10-19T03:34:58.371Z,99627.61
2018-10-19T03:37:26.888Z,99633.34
2018-10-19T03:39:55.382Z,99637.78
2018-10-19T03:42:23.933Z,99633.17
2018-10-19T03:44:52.389Z,99636.46
2018-10-19T03:47:20.920Z,99643.95
2018-10-19T03:49:49.366Z,99645.45
2018-10-19T03:52:17.819Z,99650.44
2018-10-19T03:54:46.292Z,99646.28
2018-10-19T03:57:15.670Z,99653.88
2018-10-19T03:59:44.080Z,99660.27
2018-10-19T04:02:12.632Z,99654.44
2018-10-19T04:04:41.190Z,99652.17
2018-10-19T04:07:09.651Z,99651.95
2018-10-19T04:09:38.137Z,99648.47
2018-10-19T04:12:06.612Z,99643.05
2018-10-19T04:14:37.152Z,99647.28
2018-10-19T04:17:06.036Z,99650.09
2018-10-19T04:19:35.300Z,99652.13
2018-10-19T04:22:03.720Z,99645.25
2018-10-19T04:24:32.252Z,99646.67
2018-10-19T04:27:00.765Z,99651.63
2018-10-19T04:29:29.338Z,99644.19
2018-10-19T04:31:57.854Z,99642.70
2018-10-19T04:34:26.350Z,99638.90
2018-10-19T04:37:00.772Z,99645.02
2018-10-19T04:39:29.342Z,99640.59
2018-10-19T04:41:58.093Z,99637.81
2018-10-19T04:44:26.832Z,99646.00
2018-10-19T04:46:56.209Z,99648.52
2018-10-19T04:49:24.664Z,99654.67
2018-10-19T04:51:53.188Z,99646.08
2018-10-19T04:54:22.009Z,99658.54
2018-10-19T04:56:50.491Z,99657.15
2018-10-19T04:59:19.207Z,99663.59
2018-10-19T05:01:48.727Z,99661.95
2018-10-19T05:04:18.017Z,99661.12
2018-10-19T05:06:46.859Z,99665.28
2018-10-19T05:09:15.250Z,99669.61
2018-10-19T05:11:43.719Z,99670.91
2018-10-19T05:14:12.265Z,99674.17
2018-10-19T05:16:41.642Z,99676.57
2018-10-19T05:19:10.055Z,99679.67
2018-10-19T05:21:38.724Z,99679.75
2018-10-19T05:24:07.943Z,99682.39
2018-10-19T05:26:36.436Z,99683.22
2018-10-19T05:29:05.267Z,99679.95
2018-10-19T05:31:34.293Z,99682.52
2018-10-19T05:34:02.772Z,99682.66
2018-10-19T05:36:31.438Z,99684.80
2018-10-19T05:38:59.946Z,99686.48
2018-10-19T05:41:28.381Z,99684.31
2018-10-19T05:43:56.906Z,99684.48
2018-10-19T05:46:25.328Z,99687.39
2018-10-19T05:48:53.876Z,99689.84
2018-10-19T05:51:22.419Z,99689.51
2018-10-19T05:53:50.840Z,99684.65
2018-10-19T05:56:20.211Z,99686.90
2018-10-19T05:58:48.700Z,99693.67
2018-10-19T06:01:17.131Z,99693.14
2018-10-19T06:03:45.579Z,99686.25
2018-10-19T06:06:14.064Z,99691.57
2018-10-19T06:08:42.479Z,99688.48
2018-10-19T06:11:11.040Z,99687.31
2018-10-19T06:13:39.424Z,99681.97
2018-10-19T06:16:07.883Z,99690.59
2018-10-19T06:18:36.267Z,99689.63
2018-10-19T06:21:05.798Z,99695.26
2018-10-19T06:23:34.747Z,99698.01
2018-10-19T06:26:03.319Z,99698.95
2018-10-19T06:28:32.429Z,99702.50
2018-10-19T06:31:01.073Z,99706.44
2018-10-19T06:33:29.893Z,99705.63
2018-10-19T06:35:59.427Z,99710.21
2018-10-19T06:38:28.507Z,99711.17
2018-10-19T06:40:57.013Z,99715.67
2018-10-19T06:43:26.083Z,99713.66
2018-10-19T06:45:54.610Z,99714.03
2018-10-19T06:48:25.089Z,99718.52
2018-10-19T06:50:54.503Z,99720.58
2018-10-19T06:53:22.994Z,99718.45
2018-10-19T06:55:51.600Z,99724.51
2018-10-19T06:58:21.015Z,99724.53
2018-10-19T07:00:49.595Z,99729.02
2018-10-19T07:03:18.122Z,99724.41
2018-10-19T07:05:47.087Z,99728.88
2018-10-19T07:08:15.730Z,99732.36
2018-10-19T07:10:44.209Z,99735.76
2018-10-19T07:13:12.718Z,99735.88
2018-10-19T07:15:41.381Z,99739.44
2018-10-19T07:18:10.240Z,99743.51
2018-10-19T07:20:38.711Z,99743.97
2018-10-19T07:23:07.407Z,99747.77
2018-10-19T07:25:36.708Z,99745.36
2018-10-19T07:28:05.420Z,99752.70
2018-10-19T07:30:34.430Z,99751.39
2018-10-19T07:33:02.940Z,99748.91
2018-10-19T07:35:31.424Z,99750.10
2018-10-19T07:37:59.944Z,99750.72
2018-10-19T07:40:28.380Z,99748.21
2018-10-19T07:42:57.432Z,99747.58
2018-10-19T07:45:25.892Z,99754.82
2018-10-19T07:47:57.159Z,99183.39
2018-10-19T07:50:25.794Z,99764.43
2018-10-19T07:52:55.196Z,99757.42
2018-10-19T07:55:23.696Z,99760.38
2018-10-19T07:57:52.164Z,99757.03
2018-10-19T08:00:20.676Z,99753.11
2018-10-19T08:02:49.165Z,99756.30
2018-10-19T08:05:17.630Z,99756.40
2018-10-19T08:07:46.128Z,99755.78
2018-10-19T08:10:15.406Z,99759.80
2018-10-19T08:12:43.872Z,99757.23
2018-10-19T08:15:12.308Z,99760.22
2018-10-19T08:17:40.807Z,99763.45
2018-10-19T08:20:10.136Z,99759.61
2018-10-19T08:22:38.804Z,99770.76
2018-10-19T08:25:07.430Z,99768.88
2018-10-19T08:27:37.619Z,99770.32
2018-10-19T08:30:06.959Z,99770.22
2018-10-19T08:32:35.435Z,99777.89
2018-10-19T08:35:03.930Z,99769.09
2018-10-19T08:37:32.452Z,99775.50
2018-10-19T08:40:00.912Z,99774.14
2018-10-19T08:42:29.348Z,99780.63
2018-10-19T08:44:57.840Z,99766.61
2018-10-19T08:47:26.357Z,99771.84
2018-10-19T08:49:59.125Z,99768.69
2018-10-19T08:52:27.584Z,99780.77
2018-10-19T08:54:56.013Z,99771.55
2018-10-19T08:57:24.494Z,99775.59
2018-10-19T08:59:52.942Z,99781.19
2018-10-19T09:02:21.390Z,99780.44
2018-10-19T09:04:50.721Z,99772.87
2018-10-19T09:07:19.118Z,99772.95
2018-10-19T09:09:47.629Z,99776.42
2018-10-19T09:12:16.107Z,99777.34
2018-10-19T09:14:54.819Z,99780.63
2018-10-19T09:17:23.359Z,99774.45
2018-10-19T09:19:52.132Z,99769.78
2018-10-19T09:22:21.691Z,99763.97
2018-10-19T09:24:50.880Z,99765.27
2018-10-19T09:27:19.938Z,99764.91
2018-10-19T09:29:48.676Z,99763.61
2018-10-19T09:32:17.726Z,99766.06
2018-10-19T09:34:46.281Z,99766.11
2018-10-19T09:37:15.167Z,99761.02
2018-10-19T09:39:43.696Z,99760.31
2018-10-19T09:42:12.358Z,99766.42
2018-10-19T09:44:40.998Z,99764.59
2018-10-19T09:47:09.834Z,99765.45
2018-10-19T09:49:38.347Z,99760.06
2018-10-19T09:52:06.832Z,99764.43
2018-10-19T09:54:36.173Z,99758.45
2018-10-19T09:57:04.766Z,99758.65
2018-10-19T09:59:33.268Z,99752.14
2018-10-19T10:02:01.780Z,99748.76
2018-10-19T10:04:30.947Z,99749.27
2018-10-19T10:06:59.544Z,99749.64
2018-10-19T10:09:27.955Z,99748.20
2018-10-19T10:11:57.409Z,99752.81
2018-10-19T10:14:25.899Z,99745.11
2018-10-19T10:16:54.423Z,99746.79
2018-10-19T10:19:22.868Z,99739.00
2018-10-19T10:21:51.375Z,99739.25
2018-10-19T10:24:20.026Z,99738.27
2018-10-19T10:26:48.535Z,99745.22
2018-10-19T10:29:17.073Z,99741.09
2018-10-19T10:31:45.487Z,99744.88
2018-10-19T10:34:13.975Z,99742.27
2018-10-19T10:36:42.663Z,99742.09
2018-10-19T10:39:12.791Z,99736.95
2018-10-19T10:41:43.548Z,99732.45
2018-10-19T10:44:12.775Z,99733.02
2018-10-19T10:46:41.267Z,99736.41
2018-10-19T10:49:09.846Z,99736.00
2018-10-19T10:51:38.292Z,99731.39
2018-10-19T10:54:06.780Z,99725.88
2018-10-19T10:56:35.348Z,99719.25
2018-10-19T10:59:03.855Z,99711.02
2018-10-19T11:01:32.327Z,99715.15
2018-10-19T11:04:00.782Z,99716.06
2018-10-19T11:06:29.220Z,99725.08
2018-10-19T11:08:57.671Z,99710.91
2018-10-19T11:11:26.181Z,99723.75
2018-10-19T11:13:54.704Z,99713.39
2018-10-19T11:16:23.136Z,99708.83
2018-10-19T11:18:51.707Z,99706.27
2018-10-19T11:21:20.155Z,99704.36
2018-10-19T11:23:48.615Z,99703.13
2018-10-19T11:26:17.092Z,99697.95
2018-10-19T11:28:45.543Z,99692.11
2018-10-19T11:31:14.793Z,99687.70
2018-10-19T11:33:43.252Z,99686.51
2018-10-19T11:36:11.740Z,99681.68
2018-10-19T11:38:40.219Z,99670.69
2018-10-19T11:41:08.637Z,99671.14
2018-10-19T11:43:37.059Z,99667.77
2018-10-19T11:46:05.938Z,99662.80
2018-10-19T11:48:35.432Z,99661.31
2018-10-19T11:51:03.815Z,99658.44
2018-10-19T11:53:32.288Z,99657.03
2018-10-19T11:56:00.737Z,99655.49
2018-10-19T11:58:29.241Z,99650.02
2018-10-19T12:00:57.776Z,99651.68
2018-10-19T12:03:26.293Z,99643.91
2018-10-19T12:05:54.997Z,99644.97
2018-10-19T12:08:25.297Z,99630.17
2018-10-19T12:10:53.796Z,99635.39
2018-10-19T12:13:22.282Z,99632.88
2018-10-19T12:15:50.723Z,99632.03
2018-10-19T12:18:19.188Z,99630.88
2018-10-19T12:20:47.690Z,99634.25
2018-10-19T12:23:16.948Z,99630.34
2018-10-19T12:25:46.129Z,99626.34
2018-10-19T12:28:15.942Z,99627.47
2018-10-19T12:30:44.375Z,99626.36
2018-10-19T12:33:13.624Z,99628.66
2018-10-19T12:35:41.997Z,99630.05
2018-10-19T12:38:10.475Z,99628.34
2018-10-19T12:40:38.915Z,99628.66
2018-10-19T12:43:07.591Z,99623.51
2018-10-19T12:46:47.252Z,99620.53
2018-10-19T12:49:17.125Z,99625.76
2018-10-19T12:51:45.636Z,99620.59
2018-10-19T12:54:14.840Z,99622.21
2018-10-19T12:56:43.280Z,99619.59
2018-10-19T12:59:11.767Z,99618.15
2018-10-19T13:01:40.261Z,99608.27
2018-10-19T13:04:08.757Z,99611.98
2018-10-19T13:06:37.689Z,99607.25
2018-10-19T13:09:09.145Z,99606.38
2018-10-19T13:11:37.768Z,99605.95
2018-10-19T13:14:06.349Z,99602.69
2018-10-19T13:16:34.775Z,99607.69
2018-10-19T13:19:03.307Z,99604.14
2018-10-19T13:21:32.278Z,99601.03
2018-10-19T13:24:00.805Z,99611.38
2018-10-19T13:26:29.216Z,99605.37
2018-10-19T13:28:57.679Z,99602.98
2018-10-19T13:31:27.639Z,99609.17
2018-10-19T13:33:56.102Z,99605.37
2018-10-19T13:36:24.515Z,99602.44
2018-10-19T13:38:52.982Z,99604.81
2018-10-19T13:41:21.506Z,99601.87
2018-10-19T13:43:49.963Z,99605.20
2018-10-19T13:46:18.437Z,99604.06
2018-10-19T13:48:46.963Z,99602.05
2018-10-19T13:51:15.637Z,99603.50
2018-10-19T13:53:49.548Z,99602.17
2018-10-19T13:56:18.219Z,99604.14
2018-10-19T13:58:46.784Z,99600.55
2018-10-19T14:01:15.240Z,99600.11
2018-10-19T14:03:44.126Z,99597.70
2018-10-19T14:06:12.831Z,99597.03
2018-10-19T14:08:41.280Z,99603.00
2018-10-19T14:11:09.751Z,99598.39
2018-10-19T14:13:38.357Z,99599.56
2018-10-19T14:16:07.360Z,99594.41
2018-10-19T14:18:35.824Z,99593.55
2018-10-19T14:21:04.319Z,99598.32
2018-10-19T14:23:32.946Z,99597.30
2018-10-19T14:26:01.436Z,99598.66
2018-10-19T14:28:30.603Z,99587.42
2018-10-19T14:30:59.088Z,99586.20
2018-10-19T14:33:29.191Z,99583.82
2018-10-19T14:35:57.822Z,99585.37
2018-10-19T14:38:26.441Z,99583.44
2018-10-19T14:40:54.953Z,99581.88
2018-10-19T14:43:23.377Z,99587.48
2018-10-19T14:45:54.273Z,99588.23
2018-10-19T14:48:23.672Z,99587.91
2018-10-19T14:50:52.134Z,99585.61
2018-10-19T14:53:21.393Z,99581.45
2018-10-19T14:55:49.859Z,99580.02
2018-10-19T14:58:18.324Z,99582.20
2018-10-19T15:00:47.285Z,99573.11
2018-10-19T15:03:15.923Z,99579.31
2018-10-19T15:05:44.323Z,99581.17
2018-10-19T15:08:13.514Z,99574.19
2018-10-19T15:10:42.445Z,99580.62
2018-10-19T15:13:10.676Z,99577.55
2018-10-19T15:15:39.127Z,99579.30
2018-10-19T15:18:07.653Z,99583.91
2018-10-19T15:20:36.641Z,99574.53
2018-10-19T15:23:05.044Z,99578.64
2018-10-19T15:25:33.586Z,99583.61
2018-10-19T15:28:02.089Z,99583.16
2018-10-19T15:30:30.542Z,99593.43
2018-10-19T15:32:58.999Z,99589.56
2018-10-19T15:35:27.469Z,99587.09
2018-10-19T15:37:56.291Z,99586.67
2018-10-19T15:40:25.471Z,99596.36
2018-10-19T15:42:53.966Z,99595.50
2018-10-19T15:45:22.561Z,99600.23
2018-10-19T15:47:51.004Z,99595.55
2018-10-19T15:50:19.463Z,99588.69
2018-10-19T15:52:47.945Z,99591.44
2018-10-19T15:55:16.479Z,99596.97
2018-10-19T15:57:44.916Z,99591.01
2018-10-19T16:00:13.572Z,99593.70
2018-10-19T16:02:42.050Z,99593.75
2018-10-19T16:05:10.672Z,99597.62
2018-10-19T16:07:39.152Z,99599.13
2018-10-19T16:10:07.880Z,99600.47
2018-10-19T16:12:36.776Z,99606.06
2018-10-19T16:15:06.285Z,99608.75
2018-10-19T16:17:34.864Z,99607.92
2018-10-19T16:20:03.300Z,99605.91
2018-10-19T16:22:31.772Z,99615.81
2018-10-19T16:25:00.258Z,99613.95
2018-10-19T16:27:28.861Z,99620.33
2018-10-19T16:29:57.327Z,99621.84
2018-10-19T16:32:25.829Z,99631.39
2018-10-19T16:34:54.324Z,99632.50
2018-10-19T16:37:22.818Z,99636.33
2018-10-19T16:39:51.284Z,99645.38
2018-10-19T16:42:19.728Z,99646.02
2018-10-19T16:44:50.332Z,99647.02
2018-10-19T16:47:18.770Z,99653.86
2018-10-19T16:49:47.220Z,99655.05
2018-10-19T16:52:15.814Z,99656.91
2018-10-19T16:54:44.252Z,99660.92
2018-10-19T16:57:12.719Z,99664.08
2018-10-19T16:59:41.155Z,99665.22
2018-10-19T17:02:09.595Z,99679.70
2018-10-19T17:04:38.108Z,99675.54
2018-10-19T17:07:06.596Z,99677.42
2018-10-19T17:09:36.011Z,99686.13
2018-10-19T17:12:04.479Z,99687.44
2018-10-19T17:14:32.905Z,99692.77
2018-10-19T17:17:01.353Z,99694.47
2018-10-19T17:19:29.771Z,99697.95
2018-10-19T17:21:58.218Z,99700.84
2018-10-19T17:24:26.733Z,99704.61
2018-10-19T17:26:55.237Z,99707.33
2018-10-19T17:29:23.708Z,99713.26
2018-10-19T17:31:52.143Z,99714.66
2018-10-19T17:34:20.636Z,99715.14
2018-10-19T17:36:49.126Z,99718.63
2018-10-19T17:39:17.951Z,99728.28
2018-10-19T17:41:46.396Z,99722.36
2018-10-19T17:44:15.086Z,99725.70
2018-10-19T17:46:43.576Z,99737.52
2018-10-19T17:49:12.947Z,99736.76
2018-10-19T17:51:41.926Z,99745.19
2018-10-19T17:54:10.570Z,99744.89
2018-10-19T17:56:39.316Z,99748.06
2018-10-19T17:59:07.774Z,99749.67
2018-10-19T18:01:38.238Z,99750.72
2018-10-19T18:04:06.828Z,99750.96
2018-10-19T18:06:35.288Z,99753.58
2018-10-19T18:09:04.063Z,99763.31
2018-10-19T18:11:32.537Z,99763.82
2018-10-19T18:14:01.148Z,99762.61
2018-10-19T18:16:30.598Z,99762.48
2018-10-19T18:18:59.085Z,99757.92
2018-10-19T18:21:27.737Z,99761.06
2018-10-19T18:23:56.715Z,99761.41
2018-10-19T18:26:25.467Z,99761.83
2018-10-19T18:28:54.108Z,99768.88
2018-10-19T18:31:22.595Z,99773.59
2018-10-19T18:33:51.040Z,99774.55
2018-10-19T18:36:19.462Z,99776.55
2018-10-19T18:38:47.947Z,99778.68
2018-10-19T18:41:16.499Z,99786.45
2018-10-19T18:43:44.931Z,99787.46
2018-10-19T18:46:13.347Z,99795.73
2018-10-19T18:48:41.813Z,99797.09
2018-10-19T18:51:10.245Z,99796.52
2018-10-19T18:53:38.731Z,99801.84
2018-10-19T18:56:07.361Z,99807.25
2018-10-19T18:58:35.799Z,99802.63
2018-10-19T19:01:04.239Z,99810.91
2018-10-19T19:03:32.648Z,99815.53
2018-10-19T19:06:01.248Z,99813.60
2018-10-19T19:08:29.751Z,99812.27
2018-10-19T19:10:58.459Z,99808.94
2018-10-19T19:13:29.423Z,99815.47
2018-10-19T19:15:58.322Z,99816.09
2018-10-19T19:18:27.458Z,99822.41
2018-10-19T19:20:55.932Z,99832.87
2018-10-19T19:23:24.482Z,99834.61
2018-10-19T19:25:58.118Z,99845.26
2018-10-19T19:28:26.644Z,99850.04
2018-10-19T19:30:55.138Z,99850.90
2018-10-19T19:33:28.790Z,99855.59
2018-10-19T19:35:57.329Z,99860.68
2018-10-19T19:38:25.783Z,99860.44
2018-10-19T19:40:59.496Z,99865.30
2018-10-19T19:43:27.917Z,99872.06
2018-10-19T19:45:56.470Z,99870.50
2018-10-19T19:48:30.209Z,99873.78
2018-10-19T19:50:58.659Z,99876.47
2018-10-19T19:53:27.103Z,99876.49
2018-10-19T19:55:55.576Z,99883.99
2018-10-19T19:58:24.647Z,99879.87
2018-10-19T20:00:53.303Z,99873.38
2018-10-19T20:03:21.762Z,99880.25
2018-10-19T20:05:50.347Z,99884.73
2018-10-19T20:08:18.819Z,99875.19
2018-10-19T20:10:47.259Z,99878.69
2018-10-19T20:13:15.835Z,99883.80
2018-10-19T20:15:44.336Z,99888.38
2018-10-19T20:18:12.891Z,99893.70
2018-10-19T20:20:41.333Z,99887.19
2018-10-19T20:23:09.835Z,99886.78
2018-10-19T20:25:38.324Z,99886.31
2018-10-19T20:28:06.855Z,99885.96
2018-10-19T20:30:35.410Z,99893.67
2018-10-19T20:33:03.910Z,99891.38
2018-10-19T20:35:32.388Z,99893.56
2018-10-19T20:38:01.354Z,99896.42
2018-10-19T20:40:29.816Z,99895.42
2018-10-19T20:42:58.239Z,99896.66
2018-10-19T20:45:26.731Z,99897.97
2018-10-19T20:47:55.282Z,99899.06
2018-10-19T20:50:23.744Z,99896.27
2018-10-19T20:52:52.308Z,99912.19
2018-10-19T20:55:20.779Z,99905.41
2018-10-19T20:57:49.255Z,99906.85
2018-10-19T21:00:17.671Z,99908.04
2018-10-19T21:02:46.103Z,99914.42
2018-10-19T21:05:14.726Z,99903.66
2018-10-19T21:07:43.129Z,99904.84
2018-10-19T21:10:12.864Z,99902.80
2018-10-19T21:12:41.345Z,99901.08
2018-10-19T21:15:12.176Z,99905.56
2018-10-19T21:17:41.840Z,99902.91
2018-10-19T21:20:11.481Z,99904.02
2018-10-19T21:22:39.869Z,99908.17
2018-10-19T21:25:09.729Z,99905.88
2018-10-19T21:27:38.586Z,99916.52
2018-10-19T21:30:08.303Z,99913.17
2018-10-19T21:32:37.589Z,99915.20
2018-10-19T21:35:06.068Z,99917.75
2018-10-19T21:37:35.007Z,99915.56
2018-10-19T21:40:03.754Z,99919.47
2018-10-19T21:42:32.218Z,99917.17
2018-10-19T21:45:00.664Z,99919.63
2018-10-19T21:47:29.204Z,99909.47
2018-10-19T21:49:58.084Z,99905.41
2018-10-19T21:52:26.559Z,99905.36
2018-10-19T21:54:55.214Z,99902.88
2018-10-19T21:57:23.629Z,99903.08
2018-10-19T21:59:52.108Z,99896.73
2018-10-19T22:02:20.573Z,99902.30
2018-10-19T22:04:49.011Z,99911.75
2018-10-19T22:07:17.464Z,99912.64
2018-10-19T22:09:45.924Z,99912.77
2018-10-19T22:12:15.153Z,99920.48
2018-10-19T22:14:43.590Z,99921.70
2018-10-19T22:17:13.216Z,99920.20
2018-10-19T22:19:41.804Z,99918.63
2018-10-19T22:22:10.231Z,99916.22
2018-10-19T22:24:38.714Z,99918.54
2018-10-19T22:27:07.191Z,99917.55
2018-10-19T22:29:35.842Z,99916.84
2018-10-19T22:32:04.771Z,99908.28
2018-10-19T22:34:33.258Z,99906.81
2018-10-19T22:37:01.806Z,99908.38
2018-10-19T22:39:30.202Z,99912.62
2018-10-19T22:41:58.650Z,99914.05
2018-10-19T22:44:27.063Z,99915.03
2018-10-19T22:46:59.964Z,99913.94
2018-10-19T22:49:29.372Z,99919.55
2018-10-19T22:51:57.868Z,99908.32
2018-10-19T22:54:26.308Z,99918.63
2018-10-19T22:56:55.798Z,99920.56
2018-10-19T22:59:25.420Z,99915.62
2018-10-19T23:01:53.893Z,99914.77
2018-10-19T23:04:22.290Z,99916.69
2018-10-19T23:06:50.819Z,99915.66
2018-10-19T23:09:19.242Z,99918.72
2018-10-19T23:11:47.685Z,99914.20
2018-10-19T23:14:16.148Z,99915.56
2018-10-19T23:16:44.611Z,99930.05
2018-10-19T23:19:13.064Z,99925.16
2018-10-19T23:21:42.103Z,99918.40
2018-10-19T23:24:10.489Z,99918.22
2018-10-19T23:26:38.923Z,99929.60
2018-10-19T23:29:07.466Z,99932.61
2018-10-19T23:31:36.009Z,99935.72
2018-10-19T23:34:04.461Z,99945.53
2018-10-19T23:36:32.978Z,99950.03
2018-10-19T23:39:01.666Z,99953.63
2018-10-19T23:41:30.112Z,99943.33
2018-10-19T23:43:58.583Z,99950.28
2018-10-19T23:46:27.740Z,99945.63
2018-10-19T23:48:56.241Z,99957.33
2018-10-19T23:51:24.679Z,99956.08
2018-10-19T23:53:53.665Z,99955.71
2018-10-19T23:56:22.095Z,99962.34
2018-10-19T23:58:50.603Z,99968.87
